createdAt,value
2024-01-24T00:01:38.201Z,100832.41
2024-01-24T00:04:07.191Z,100843.98
2024-01-24T00:06:37.389Z,100845.25
2024-01-24T00:09:06.062Z,100839.73
2024-01-24T00:11:34.058Z,100841.92
2024-01-24T00:14:01.891Z,100845.13
2024-01-24T00:16:29.924Z,100850.91
2024-01-24T00:18:58.174Z,100846.97
2024-01-24T00:21:26.162Z,100836.23
2024-01-24T00:23:54.147Z,100836.03
2024-01-24T00:26:21.923Z,100840.79
2024-01-24T00:28:49.723Z,100838.05
2024-01-24T00:31:17.796Z,100833.97
2024-01-24T00:33:45.800Z,100833.66
2024-01-24T00:36:13.790Z,100828.58
2024-01-24T00:38:41.702Z,100833.03
2024-01-24T00:41:09.669Z,100836.64
2024-01-24T00:43:37.517Z,100829.13
2024-01-24T00:46:05.377Z,100829.45
2024-01-24T00:48:33.254Z,100822.13
2024-01-24T00:51:01.422Z,100820.29
2024-01-24T00:53:33.979Z,100820.56
2024-01-24T00:56:01.941Z,100815.19
2024-01-24T00:58:29.885Z,100822.45
2024-01-24T01:00:57.889Z,100826.66
2024-01-24T01:03:25.958Z,100825.86
2024-01-24T01:05:54.072Z,100821.64
2024-01-24T01:08:22.069Z,100814.83
2024-01-24T01:10:49.982Z,100800.17
2024-01-24T01:13:17.941Z,100787.50
2024-01-24T01:15:45.976Z,100791.05
2024-01-24T01:18:13.864Z,100790.50
2024-01-24T01:20:42.176Z,100775.63
2024-01-24T01:23:10.391Z,100770.46
2024-01-24T01:25:38.518Z,100770.08
2024-01-24T01:28:06.578Z,100763.58
2024-01-24T01:30:34.603Z,100746.86
2024-01-24T01:33:02.695Z,100742.07
2024-01-24T01:35:30.746Z,100721.24
2024-01-24T01:37:58.673Z,100711.86
2024-01-24T01:40:27.678Z,100703.16
2024-01-24T01:42:55.611Z,100689.69
2024-01-24T01:45:24.451Z,100684.25
2024-01-24T01:47:52.700Z,100670.42
2024-01-24T01:50:21.055Z,100669.23
2024-01-24T01:52:49.259Z,100663.78
2024-01-24T01:55:17.535Z,100657.48
2024-01-24T01:57:47.834Z,100659.05
2024-01-24T02:00:26.228Z,100656.67
2024-01-24T02:02:54.600Z,100655.98
2024-01-24T02:05:22.690Z,100651.92
2024-01-24T02:07:51.026Z,100643.56
2024-01-24T02:10:19.272Z,100634.88
2024-01-24T02:12:47.282Z,100630.46
2024-01-24T02:15:16.187Z,100624.52
2024-01-24T02:17:44.464Z,100625.55
2024-01-24T02:20:13.922Z,100627.45
2024-01-24T02:22:41.819Z,100623.55
2024-01-24T02:25:09.708Z,100622.02
2024-01-24T02:27:38.025Z,100611.80
2024-01-24T02:30:06.878Z,100609.90
2024-01-24T02:32:34.824Z,100601.91
2024-01-24T02:35:02.648Z,100596.98
2024-01-24T02:37:31.582Z,100587.27
2024-01-24T02:39:59.558Z,100575.34
2024-01-24T02:42:27.574Z,100560.99
2024-01-24T02:44:55.616Z,100551.61
2024-01-24T02:47:23.622Z,100550.94
2024-01-24T02:49:52.034Z,100549.59
2024-01-24T02:52:20.002Z,100556.56
2024-01-24T02:54:48.489Z,100556.88
2024-01-24T02:57:16.847Z,100555.80
2024-01-24T02:59:45.022Z,100551.69
2024-01-24T03:02:13.067Z,100537.65
2024-01-24T03:04:40.933Z,100525.34
2024-01-24T03:07:09.932Z,100526.99
2024-01-24T03:09:38.038Z,100530.17
2024-01-24T03:12:06.209Z,100521.27
2024-01-24T03:14:34.117Z,100505.89
2024-01-24T03:17:02.506Z,100500.23
2024-01-24T03:19:30.870Z,100500.19
2024-01-24T03:21:59.381Z,100490.42
2024-01-24T03:24:27.557Z,100474.02
2024-01-24T03:26:55.796Z,100468.52
2024-01-24T03:29:23.665Z,100463.03
2024-01-24T03:31:51.449Z,100460.27
2024-01-24T03:34:19.571Z,100450.52
2024-01-24T03:36:47.606Z,100444.68
2024-01-24T03:39:15.843Z,100429.66
2024-01-24T03:41:43.819Z,100422.66
2024-01-24T03:44:11.768Z,100426.25
2024-01-24T03:46:39.921Z,100426.10
2024-01-24T03:49:08.272Z,100425.45
2024-01-24T03:51:36.354Z,100428.41
2024-01-24T03:54:04.423Z,100422.30
2024-01-24T03:56:32.589Z,100417.75
2024-01-24T03:59:00.635Z,100409.77
2024-01-24T04:01:28.545Z,100403.17
2024-01-24T04:03:56.695Z,100393.31
2024-01-24T04:06:24.782Z,100384.65
2024-01-24T04:08:53.010Z,100377.00
2024-01-24T04:11:20.875Z,100372.59
2024-01-24T04:13:54.791Z,100359.98
2024-01-24T04:16:22.640Z,100353.35
2024-01-24T04:18:53.953Z,100348.58
2024-01-24T04:21:22.123Z,100345.70
2024-01-24T04:23:50.727Z,100336.16
2024-01-24T04:26:22.558Z,100318.26
2024-01-24T04:28:50.396Z,100308.72
2024-01-24T04:31:18.444Z,100302.93
2024-01-24T04:33:46.608Z,100293.04
2024-01-24T04:36:14.789Z,100279.56
2024-01-24T04:38:44.837Z,100269.00
2024-01-24T04:41:13.215Z,100261.48
2024-01-24T04:43:41.287Z,100256.20
2024-01-24T04:46:16.204Z,100255.17
2024-01-24T04:48:46.364Z,100253.81
2024-01-24T04:51:14.846Z,100247.85
2024-01-24T04:53:43.181Z,100246.67
2024-01-24T04:56:11.368Z,100241.38
2024-01-24T04:58:41.757Z,100221.77
2024-01-24T05:01:09.860Z,100215.11
2024-01-24T05:03:39.049Z,100203.69
2024-01-24T05:06:10.944Z,100191.73
2024-01-24T05:08:40.753Z,100182.86
2024-01-24T05:11:08.816Z,100174.66
2024-01-24T05:13:38.099Z,100172.45
2024-01-24T05:16:06.462Z,100161.85
2024-01-24T05:18:34.523Z,100154.86
2024-01-24T05:21:03.750Z,100151.61
2024-01-24T05:23:31.721Z,100149.05
2024-01-24T05:25:59.696Z,100153.65
2024-01-24T05:28:27.660Z,100155.54
2024-01-24T05:30:55.679Z,100153.48
2024-01-24T05:33:24.852Z,100150.93
2024-01-24T05:35:53.656Z,100146.84
2024-01-24T05:38:21.678Z,100136.24
2024-01-24T05:40:49.957Z,100120.04
2024-01-24T05:43:17.868Z,100111.16
2024-01-24T05:45:45.880Z,100111.84
2024-01-24T05:48:15.554Z,100108.76
2024-01-24T05:50:43.658Z,100102.77
2024-01-24T05:53:11.724Z,100088.09
2024-01-24T05:55:39.713Z,100074.08
2024-01-24T05:58:07.815Z,100058.18
2024-01-24T06:00:36.577Z,100053.21
2024-01-24T06:03:04.923Z,100041.25
2024-01-24T06:05:34.233Z,100031.16
2024-01-24T06:08:03.796Z,100026.36
2024-01-24T06:10:32.219Z,100036.78
2024-01-24T06:13:00.216Z,100043.44
2024-01-24T06:15:28.890Z,100040.02
2024-01-24T06:17:57.127Z,100034.04
2024-01-24T06:20:25.288Z,100029.93
2024-01-24T06:22:53.146Z,100025.13
2024-01-24T06:25:22.129Z,100009.20
2024-01-24T06:27:50.011Z,100000.32
2024-01-24T06:30:22.515Z,99991.05
2024-01-24T06:32:54.813Z,99982.67
2024-01-24T06:35:23.123Z,99979.73
2024-01-24T06:37:52.817Z,99972.92
2024-01-24T06:40:21.488Z,99969.50
2024-01-24T06:42:50.417Z,99959.11
2024-01-24T06:45:18.470Z,99953.15
2024-01-24T06:47:47.139Z,99949.75
2024-01-24T06:50:15.751Z,99938.83
2024-01-24T06:52:43.984Z,99930.30
2024-01-24T06:55:14.980Z,99919.73
2024-01-24T06:57:43.294Z,99920.41
2024-01-24T07:00:12.138Z,99911.20
2024-01-24T07:02:40.555Z,99912.22
2024-01-24T07:05:08.667Z,99907.44
2024-01-24T07:07:38.631Z,99887.46
2024-01-24T07:10:12.939Z,99867.31
2024-01-24T07:12:47.134Z,99846.34
2024-01-24T07:15:19.932Z,99833.90
2024-01-24T07:17:48.334Z,99820.06
2024-01-24T07:20:17.635Z,99808.30
2024-01-24T07:22:45.628Z,99793.95
2024-01-24T07:25:13.689Z,99777.88
2024-01-24T07:27:42.014Z,99765.39
2024-01-24T07:30:10.632Z,99755.14
2024-01-24T07:32:42.274Z,99741.96
2024-01-24T07:35:10.903Z,99737.33
2024-01-24T07:37:39.021Z,99732.50
2024-01-24T07:40:19.015Z,99723.44
2024-01-24T07:42:47.640Z,99718.80
2024-01-24T07:45:16.202Z,99710.40
2024-01-24T07:47:45.769Z,99702.88
2024-01-24T07:50:14.561Z,99689.35
2024-01-24T07:52:44.103Z,99684.36
2024-01-24T07:55:13.231Z,99680.23
2024-01-24T07:57:42.256Z,99675.43
2024-01-24T08:00:18.118Z,99671.16
2024-01-24T08:02:49.216Z,99667.05
2024-01-24T08:05:20.588Z,99655.10
2024-01-24T08:07:49.288Z,99645.36
2024-01-24T08:10:18.711Z,99635.39
2024-01-24T08:12:47.042Z,99608.58
2024-01-24T08:15:15.986Z,99598.31
2024-01-24T08:17:45.001Z,99593.37
2024-01-24T08:20:13.384Z,99590.81
2024-01-24T08:22:41.493Z,99587.05
2024-01-24T08:25:09.711Z,99582.10
2024-01-24T08:27:38.233Z,99573.55
2024-01-24T08:30:07.537Z,99572.33
2024-01-24T08:32:35.713Z,99571.80
2024-01-24T08:35:05.211Z,99565.63
2024-01-24T08:45:10.375Z,99536.75
2024-01-24T08:47:38.524Z,99533.35
2024-01-24T08:50:07.823Z,99519.27
2024-01-24T08:52:36.814Z,99511.00
2024-01-24T08:55:08.623Z,99505.48
2024-01-24T08:57:36.846Z,99499.98
2024-01-24T09:00:05.820Z,99495.67
2024-01-24T09:02:34.940Z,99491.40
2024-01-24T09:05:03.187Z,99488.84
2024-01-24T09:07:32.889Z,99482.38
2024-01-24T09:10:01.789Z,99476.61
2024-01-24T09:12:32.336Z,99472.20
2024-01-24T09:15:00.281Z,99473.54
2024-01-24T09:17:28.618Z,99476.44
2024-01-24T09:19:56.910Z,99473.13
2024-01-24T09:22:25.132Z,99474.45
2024-01-24T09:24:53.254Z,99464.66
2024-01-24T09:27:21.691Z,99459.33
2024-01-24T09:29:49.544Z,99452.64
2024-01-24T09:32:17.718Z,99451.17
2024-01-24T09:34:45.796Z,99439.96
2024-01-24T09:37:13.998Z,99430.33
2024-01-24T09:39:42.056Z,99427.85
2024-01-24T09:42:20.514Z,99421.75
2024-01-24T09:44:52.436Z,99415.00
2024-01-24T09:47:25.968Z,99406.36
2024-01-24T09:49:54.590Z,99398.76
2024-01-24T09:52:26.292Z,99395.93
2024-01-24T09:55:00.955Z,99385.91
2024-01-24T09:57:29.461Z,99379.50
2024-01-24T09:59:57.785Z,99372.11
2024-01-24T10:02:29.376Z,99369.58
2024-01-24T10:04:59.994Z,99359.17
2024-01-24T10:07:28.629Z,99347.24
2024-01-24T10:10:11.133Z,99366.42
2024-01-24T10:12:43.426Z,99360.94
2024-01-24T10:15:12.296Z,99349.14
2024-01-24T10:17:44.606Z,99346.79
2024-01-24T10:20:13.671Z,99351.52
2024-01-24T10:22:44.657Z,99351.39
2024-01-24T10:25:13.221Z,99351.98
2024-01-24T10:27:43.098Z,99341.80
2024-01-24T10:30:14.122Z,99323.46
2024-01-24T10:32:49.800Z,99328.33
2024-01-24T10:35:18.409Z,99324.16
2024-01-24T10:37:47.154Z,99319.25
2024-01-24T10:40:17.391Z,99312.70
2024-01-24T10:42:47.216Z,99293.95
2024-01-24T10:45:17.227Z,99292.75
2024-01-24T10:47:46.318Z,99294.52
2024-01-24T10:50:17.029Z,99288.98
2024-01-24T10:52:45.810Z,99277.42
2024-01-24T10:55:16.133Z,99282.72
2024-01-24T10:57:45.838Z,99284.14
2024-01-24T11:00:17.152Z,99271.27
2024-01-24T11:02:45.871Z,99266.07
2024-01-24T11:05:39.232Z,99268.63
2024-01-24T11:08:12.825Z,99260.75
2024-01-24T11:10:43.526Z,99260.81
2024-01-24T11:13:12.947Z,99254.55
2024-01-24T11:15:42.061Z,99257.71
2024-01-24T11:18:34.910Z,99247.85
2024-01-24T11:21:03.170Z,99247.36
2024-01-24T11:23:42.458Z,99251.11
2024-01-24T11:26:31.626Z,99243.08
2024-01-24T11:29:06.902Z,99246.45
2024-01-24T11:31:43.234Z,99246.08
2024-01-24T11:34:13.389Z,99236.67
2024-01-24T11:36:49.200Z,99250.11
2024-01-24T11:39:38.739Z,99251.60
2024-01-24T11:42:25.725Z,99237.91
2024-01-24T11:44:54.247Z,99241.89
2024-01-24T11:47:25.722Z,99242.77
2024-01-24T11:49:56.153Z,99247.91
2024-01-24T11:52:24.228Z,99237.80
2024-01-24T11:54:53.614Z,99241.69
2024-01-24T11:57:21.832Z,99242.58
2024-01-24T11:59:49.927Z,99241.33
2024-01-24T12:02:18.298Z,99242.25
2024-01-24T12:04:50.793Z,99243.38
2024-01-24T12:07:20.308Z,99238.71
2024-01-24T12:09:49.650Z,99225.83
2024-01-24T12:12:19.382Z,99214.45
2024-01-24T12:14:48.076Z,99216.96
2024-01-24T12:17:16.893Z,99214.21
2024-01-24T12:19:46.445Z,99220.35
2024-01-24T12:22:16.949Z,99208.77
2024-01-24T12:24:45.415Z,99198.91
2024-01-24T12:27:39.802Z,99203.54
2024-01-24T12:30:11.298Z,99207.50
2024-01-24T12:32:42.008Z,99206.55
2024-01-24T12:35:14.099Z,99198.62
2024-01-24T12:37:43.395Z,99195.77
2024-01-24T12:40:13.568Z,99198.11
2024-01-24T12:42:42.484Z,99204.02
2024-01-24T12:45:14.687Z,99201.77
2024-01-24T12:47:44.149Z,99203.40
2024-01-24T12:50:12.688Z,99198.67
2024-01-24T12:52:42.031Z,99192.80
2024-01-24T12:55:10.133Z,99187.08
2024-01-24T12:57:38.467Z,99187.10
2024-01-24T13:00:11.269Z,99191.09
2024-01-24T13:02:40.394Z,99193.98
2024-01-24T13:05:09.784Z,99193.40
2024-01-24T13:07:38.629Z,99195.36
2024-01-24T13:10:08.278Z,99199.64
2024-01-24T13:12:36.881Z,99200.75
2024-01-24T13:15:11.313Z,99191.39
2024-01-24T13:17:39.398Z,99192.94
2024-01-24T13:20:10.562Z,99177.68
2024-01-24T13:22:38.741Z,99194.29
2024-01-24T13:25:07.289Z,99202.94
2024-01-24T13:27:35.261Z,99192.05
2024-01-24T13:30:03.360Z,99184.91
2024-01-24T13:32:31.471Z,99194.39
2024-01-24T13:34:59.797Z,99201.02
2024-01-24T13:37:28.119Z,99207.93
2024-01-24T13:39:56.687Z,99213.20
2024-01-24T13:42:24.913Z,99224.27
2024-01-24T13:44:53.365Z,99226.73
2024-01-24T13:47:21.684Z,99233.15
2024-01-24T13:49:49.936Z,99230.54
2024-01-24T13:52:18.662Z,99236.83
2024-01-24T13:54:46.846Z,99243.73
2024-01-24T13:57:15.239Z,99244.32
2024-01-24T13:59:43.552Z,99237.63
2024-01-24T14:02:12.517Z,99224.52
2024-01-24T14:04:40.711Z,99227.43
2024-01-24T14:07:08.925Z,99230.17
2024-01-24T14:09:37.562Z,99235.68
2024-01-24T14:12:09.696Z,99229.48
2024-01-24T14:14:37.852Z,99212.52
2024-01-24T14:17:05.994Z,99203.88
2024-01-24T14:19:34.658Z,99191.73
2024-01-24T14:22:02.903Z,99196.88
2024-01-24T14:24:30.966Z,99209.37
2024-01-24T14:26:58.899Z,99199.72
2024-01-24T14:29:26.871Z,99214.04
2024-01-24T14:31:54.859Z,99221.80
2024-01-24T14:34:23.640Z,99213.42
2024-01-24T14:36:55.710Z,99195.27
2024-01-24T14:39:31.668Z,99181.74
2024-01-24T14:41:59.807Z,99219.83
2024-01-24T14:44:27.850Z,99229.18
2024-01-24T14:46:55.666Z,99222.86
2024-01-24T14:49:25.959Z,99221.70
2024-01-24T14:51:54.096Z,99228.73
2024-01-24T14:54:22.071Z,99226.92
2024-01-24T14:56:50.329Z,99227.33
2024-01-24T14:59:18.649Z,99234.96
2024-01-24T15:01:46.748Z,99237.29
2024-01-24T15:04:15.030Z,99240.58
2024-01-24T15:06:43.227Z,99231.10
2024-01-24T15:09:14.200Z,99241.83
2024-01-24T15:11:42.844Z,99238.64
2024-01-24T15:14:10.709Z,99241.27
2024-01-24T15:16:38.673Z,99242.27
2024-01-24T15:19:06.847Z,99248.29
2024-01-24T15:21:34.972Z,99245.95
2024-01-24T15:24:07.293Z,99253.92
2024-01-24T15:26:36.245Z,99255.30
2024-01-24T15:29:05.917Z,99252.91
2024-01-24T15:31:34.140Z,99256.25
2024-01-24T15:34:05.314Z,99263.89
2024-01-24T15:36:33.707Z,99263.13
2024-01-24T15:39:02.539Z,99260.73
2024-01-24T15:41:30.970Z,99267.17
2024-01-24T15:43:59.223Z,99276.55
2024-01-24T15:46:28.287Z,99272.21
2024-01-24T15:48:57.390Z,99267.76
2024-01-24T15:51:25.712Z,99266.13
2024-01-24T15:53:54.022Z,99270.67
2024-01-24T15:56:22.253Z,99269.05
2024-01-24T15:58:50.389Z,99264.37
2024-01-24T16:01:18.798Z,99275.86
2024-01-24T16:03:47.097Z,99270.08
2024-01-24T16:06:16.143Z,99271.46
2024-01-24T16:08:44.178Z,99269.67
2024-01-24T16:11:12.099Z,99271.73
2024-01-24T16:13:40.281Z,99276.05
2024-01-24T16:16:08.645Z,99270.06
2024-01-24T16:18:36.686Z,99270.16
2024-01-24T16:21:05.730Z,99276.97
2024-01-24T16:23:33.695Z,99273.06
2024-01-24T16:26:02.055Z,99269.73
2024-01-24T16:28:30.081Z,99273.96
2024-01-24T16:30:58.440Z,99278.09
2024-01-24T16:33:27.424Z,99281.59
2024-01-24T16:35:57.481Z,99275.91
2024-01-24T16:38:25.363Z,99278.23
2024-01-24T16:40:54.120Z,99282.45
2024-01-24T16:43:23.641Z,99284.73
2024-01-24T16:45:52.089Z,99284.83
2024-01-24T16:48:20.298Z,99284.33
2024-01-24T16:50:48.400Z,99276.11
2024-01-24T16:53:18.724Z,99279.23
2024-01-24T16:55:46.963Z,99278.71
2024-01-24T16:58:15.758Z,99268.98
2024-01-24T17:00:45.110Z,99271.27
2024-01-24T17:03:13.556Z,99273.76
2024-01-24T17:05:41.790Z,99272.69
2024-01-24T17:08:09.726Z,99270.39
2024-01-24T17:10:37.669Z,99274.29
2024-01-24T17:13:06.345Z,99279.70
2024-01-24T17:15:34.417Z,99275.29
2024-01-24T17:18:05.432Z,99278.96
2024-01-24T17:20:34.146Z,99268.20
2024-01-24T17:23:02.106Z,99264.67
2024-01-24T17:25:30.060Z,99255.73
2024-01-24T17:27:58.496Z,99259.02
2024-01-24T17:30:26.545Z,99252.09
2024-01-24T17:32:54.883Z,99252.35
2024-01-24T17:35:22.886Z,99255.63
2024-01-24T17:37:50.989Z,99254.69
2024-01-24T17:40:18.932Z,99253.68
2024-01-24T17:42:47.304Z,99250.48
2024-01-24T17:45:15.655Z,99244.45
2024-01-24T17:47:43.777Z,99248.54
2024-01-24T17:50:13.026Z,99248.55
2024-01-24T17:52:43.795Z,99251.01
2024-01-24T17:55:12.003Z,99247.98
2024-01-24T17:57:40.251Z,99243.98
2024-01-24T18:00:09.141Z,99240.80
2024-01-24T18:02:37.152Z,99241.10
2024-01-24T18:05:07.105Z,99242.64
2024-01-24T18:07:35.266Z,99239.48
2024-01-24T18:10:03.659Z,99241.01
2024-01-24T18:12:32.710Z,99245.55
2024-01-24T18:15:01.014Z,99253.48
2024-01-24T18:17:29.407Z,99251.77
2024-01-24T18:19:57.600Z,99249.31
2024-01-24T18:22:25.609Z,99246.53
2024-01-24T18:24:53.769Z,99246.00
2024-01-24T18:27:22.083Z,99248.89
2024-01-24T18:29:53.668Z,99248.65
2024-01-24T18:32:21.899Z,99242.06
2024-01-24T18:34:50.526Z,99250.59
2024-01-24T18:37:19.326Z,99251.73
2024-01-24T18:39:49.033Z,99246.80
2024-01-24T18:42:17.498Z,99246.63
2024-01-24T18:44:45.938Z,99246.98
2024-01-24T18:47:14.434Z,99250.07
2024-01-24T18:49:43.929Z,99250.27
2024-01-24T18:52:14.345Z,99253.74
2024-01-24T18:54:45.937Z,99253.27
2024-01-24T18:57:13.966Z,99244.18
2024-01-24T18:59:42.504Z,99242.21
2024-01-24T19:02:12.831Z,99244.52
2024-01-24T19:04:41.611Z,99243.83
2024-01-24T19:07:10.098Z,99250.98
2024-01-24T19:09:38.908Z,99251.55
2024-01-24T19:12:09.492Z,99253.22
2024-01-24T19:14:38.849Z,99246.60
2024-01-24T19:17:07.763Z,99248.83
2024-01-24T19:19:36.672Z,99247.44
2024-01-24T19:22:05.458Z,99245.30
2024-01-24T19:24:35.241Z,99243.26
2024-01-24T19:27:04.936Z,99247.70
2024-01-24T19:29:33.139Z,99238.98
2024-01-24T19:32:01.292Z,99243.23
2024-01-24T19:34:29.699Z,99239.84
2024-01-24T19:36:57.878Z,99239.69
2024-01-24T19:39:25.979Z,99243.09
2024-01-24T19:41:54.010Z,99242.16
2024-01-24T19:44:22.062Z,99244.13
2024-01-24T19:46:50.187Z,99244.41
2024-01-24T19:49:18.412Z,99246.36
2024-01-24T19:51:49.414Z,99252.73
2024-01-24T19:54:18.466Z,99245.45
2024-01-24T19:56:46.516Z,99240.78
2024-01-24T19:59:14.581Z,99238.32
2024-01-24T20:01:42.816Z,99241.19
2024-01-24T20:04:11.223Z,99243.24
2024-01-24T20:06:39.494Z,99240.90
2024-01-24T20:09:08.279Z,99245.19
2024-01-24T20:11:36.209Z,99247.85
2024-01-24T20:14:14.035Z,99251.71
2024-01-24T20:16:42.590Z,99247.81
2024-01-24T20:19:10.913Z,99250.63
2024-01-24T20:21:41.629Z,99251.83
2024-01-24T20:24:13.185Z,99255.23
2024-01-24T20:26:41.765Z,99250.35
2024-01-24T20:29:09.894Z,99250.66
2024-01-24T20:31:40.393Z,99253.53
2024-01-24T20:34:10.695Z,99246.80
2024-01-24T20:36:44.200Z,99246.98
2024-01-24T20:39:26.926Z,99244.15
2024-01-24T20:42:05.705Z,99244.86
2024-01-24T20:44:42.337Z,99242.20
2024-01-24T20:47:11.285Z,99229.46
2024-01-24T20:49:39.640Z,99236.35
2024-01-24T20:52:07.919Z,99234.90
2024-01-24T20:54:36.356Z,99230.71
2024-01-24T20:57:04.770Z,99231.27
2024-01-24T20:59:33.396Z,99235.36
2024-01-24T21:02:02.067Z,99237.16
2024-01-24T21:04:30.491Z,99228.98
2024-01-24T21:06:59.442Z,99227.77
2024-01-24T21:09:29.435Z,99227.11
2024-01-24T21:11:58.729Z,99231.44
2024-01-24T21:14:27.202Z,99232.05
2024-01-24T21:16:59.650Z,99226.20
2024-01-24T21:19:28.308Z,99235.80
2024-01-24T21:21:56.898Z,99243.39
2024-01-24T21:24:25.189Z,99246.42
2024-01-24T21:26:53.504Z,99243.98
2024-01-24T21:29:22.405Z,99244.91
2024-01-24T21:31:50.417Z,99241.34
2024-01-24T21:34:19.282Z,99245.67
2024-01-24T21:36:48.757Z,99248.20
2024-01-24T21:39:30.395Z,99248.75
2024-01-24T21:41:59.022Z,99249.52
2024-01-24T21:44:27.014Z,99245.61
2024-01-24T21:46:55.044Z,99248.27
2024-01-24T21:49:29.781Z,99246.67
2024-01-24T21:51:59.840Z,99239.44
2024-01-24T21:54:28.035Z,99237.69
2024-01-24T21:56:56.029Z,99238.79
2024-01-24T21:59:24.006Z,99237.65
2024-01-24T22:01:52.124Z,99234.74
2024-01-24T22:04:20.312Z,99234.77
2024-01-24T22:06:48.387Z,99246.53
2024-01-24T22:09:16.813Z,99249.87
2024-01-24T22:11:44.690Z,99246.88
2024-01-24T22:14:12.757Z,99252.42
2024-01-24T22:16:40.702Z,99246.70
2024-01-24T22:19:09.124Z,99252.70
2024-01-24T22:21:43.976Z,99244.95
2024-01-24T22:24:12.530Z,99238.73
2024-01-24T22:26:41.339Z,99248.80
2024-01-24T22:29:10.689Z,99250.69
2024-01-24T22:31:38.892Z,99260.18
2024-01-24T22:34:07.267Z,99254.84
2024-01-24T22:36:35.450Z,99252.39
2024-01-24T22:39:03.613Z,99254.71
2024-01-24T22:41:31.643Z,99250.71
2024-01-24T22:43:59.855Z,99249.88
2024-01-24T22:46:28.344Z,99251.95
2024-01-24T22:48:57.895Z,99248.05
2024-01-24T22:51:26.110Z,99258.29
2024-01-24T22:53:55.856Z,99258.38
2024-01-24T22:56:24.105Z,99254.20
2024-01-24T22:58:52.147Z,99261.27
2024-01-24T23:01:20.439Z,99252.88
2024-01-24T23:03:49.339Z,99249.90
2024-01-24T23:06:18.364Z,99256.48
2024-01-24T23:08:46.475Z,99256.70
2024-01-24T23:11:14.586Z,99251.80
2024-01-24T23:13:42.467Z,99256.36
2024-01-24T23:16:10.645Z,99253.65
2024-01-24T23:18:38.785Z,99256.57
2024-01-24T23:21:06.955Z,99254.70
2024-01-24T23:23:35.236Z,99257.73
2024-01-24T23:26:03.094Z,99260.39
2024-01-24T23:28:31.238Z,99254.88
2024-01-24T23:30:59.527Z,99254.71
2024-01-24T23:33:31.517Z,99251.31
2024-01-24T23:35:59.668Z,99245.55
2024-01-24T23:38:27.681Z,99245.86
2024-01-24T23:40:55.624Z,99246.79
2024-01-24T23:43:23.842Z,99243.30
2024-01-24T23:45:51.855Z,99242.30
2024-01-24T23:48:19.945Z,99243.81
2024-01-24T23:50:48.117Z,99244.64
2024-01-24T23:53:16.303Z,99243.36
2024-01-24T23:55:44.393Z,99242.32
2024-01-24T23:58:12.585Z,99244.40
